Time;durP1;ratioP1;P1;durP2;ratioP2;P2;SDS_P1;SDS_P2;PMS_P1;PMS_P2;Temp;Humidity;BMP_temperature;BMP_pressure;BME280_temperature;BME280_humidity;BME280_pressure;Samples;Min_cycle;Max_cycle;Signal;HPM_P1;HPM_P2
2024/01/20 00:01:13;;;;;;;0.70;0.70;;;;;;;-2.82;100.00;102510.72;5094501;28;20020;-58
2024/01/20 00:03:39;;;;;;;0.70;0.70;;;;;;;-2.83;100.00;102512.38;5095254;28;20032;-58
2024/01/20 00:06:04;;;;;;;0.73;0.73;;;;;;;-2.79;100.00;102513.56;5095289;28;20544;-58
2024/01/20 00:08:29;;;;;;;0.70;0.70;;;;;;;-2.79;100.00;102513.56;5094226;28;20130;-58
2024/01/20 00:10:55;;;;;;;0.60;0.60;;;;;;;-2.77;100.00;102522.22;5095140;28;20028;-58
2024/01/20 00:13:20;;;;;;;0.70;0.70;;;;;;;-2.76;100.00;102513.94;5094948;28;20035;-58
2024/01/20 00:15:45;;;;;;;0.70;0.70;;;;;;;-2.68;100.00;102513.13;5093855;28;20376;-58
2024/01/20 00:18:10;;;;;;;0.60;0.60;;;;;;;-2.72;100.00;102513.53;5095213;28;20099;-59
2024/01/20 00:20:36;;;;;;;0.60;0.60;;;;;;;-2.71;100.00;102527.97;5095263;28;20379;-59
2024/01/20 00:23:01;;;;;;;0.60;0.60;;;;;;;-2.63;100.00;102522.84;5094331;28;20031;-58
2024/01/20 00:25:26;;;;;;;0.60;0.60;;;;;;;-2.70;100.00;102529.75;5094727;28;20031;-58
2024/01/20 00:27:52;;;;;;;0.60;0.60;;;;;;;-2.70;100.00;102537.34;5094759;28;20036;-58
2024/01/20 00:30:17;;;;;;;0.60;0.60;;;;;;;-2.62;100.00;102532.22;5093733;28;20144;-58
2024/01/20 00:32:42;;;;;;;0.70;0.70;;;;;;;-2.69;100.00;102536.56;5094798;28;20032;-59
2024/01/20 00:35:07;;;;;;;0.70;0.70;;;;;;;-2.69;100.00;102521.44;5094302;28;20023;-58
2024/01/20 00:37:37;;;;;;;0.60;0.60;;;;;;;-2.71;100.00;102522.91;5093861;28;20035;-58
2024/01/20 00:40:04;;;;;;;0.70;0.70;;;;;;;-2.73;100.00;102511.75;5094682;28;20418;-58
2024/01/20 00:42:30;;;;;;;0.60;0.60;;;;;;;-2.72;100.00;102505.97;5094182;28;20078;-59
2024/01/20 00:44:55;;;;;;;0.70;0.70;;;;;;;-2.74;100.00;102512.47;5093984;28;20383;-58
2024/01/20 00:47:20;;;;;;;0.60;0.60;;;;;;;-2.76;100.00;102518.97;5094480;28;20073;-58
2024/01/20 00:49:47;;;;;;;0.47;0.47;;;;;;;-2.74;100.00;102516.63;5094484;28;20032;-58
2024/01/20 00:52:12;;;;;;;0.63;0.63;;;;;;;-2.75;100.00;102510.69;5093668;28;20032;-59
2024/01/20 00:54:37;;;;;;;0.70;0.70;;;;;;;-2.76;100.00;102513.03;5094317;28;20028;-59
2024/01/20 00:57:03;;;;;;;0.70;0.70;;;;;;;-2.76;100.00;102513.94;5093351;28;20150;-58
2024/01/20 00:59:29;;;;;;;0.60;0.60;;;;;;;-2.76;100.00;102513.94;5094054;28;20035;-58
2024/01/20 01:01:54;;;;;;;0.70;0.70;;;;;;;-2.78;100.00;102507.81;5094327;28;20532;-58
2024/01/20 01:04:20;;;;;;;0.60;0.60;;;;;;;-2.78;100.00;102505.28;5093267;28;20031;-58
2024/01/20 01:06:45;;;;;;;0.60;0.60;;;;;;;-2.76;100.00;102515.53;5094248;28;20033;-58
2024/01/20 01:09:10;;;;;;;0.60;0.60;;;;;;;-2.79;100.00;102512.69;5093687;28;20031;-58
2024/01/20 01:11:35;;;;;;;0.60;0.60;;;;;;;-2.81;100.00;102510.00;5093175;28;20382;-58
2024/01/20 01:14:01;;;;;;;0.70;0.70;;;;;;;-2.83;100.00;102508.94;5094074;28;20031;-58
2024/01/20 01:16:26;;;;;;;0.65;0.65;;;;;;;-2.82;100.00;102513.25;5093871;28;20032;-58
2024/01/20 01:18:51;;;;;;;0.52;0.52;;;;;;;-2.81;100.00;102500.81;5093281;28;20028;-59
2024/01/20 01:21:16;;;;;;;0.70;0.70;;;;;;;-2.81;100.00;102515.94;5093702;28;20532;-58
2024/01/20 01:23:42;;;;;;;0.65;0.65;;;;;;;-2.81;100.00;102508.38;5093861;28;20067;-58
2024/01/20 01:26:07;;;;;;;0.60;0.60;;;;;;;-2.79;100.00;102507.66;5092324;28;20434;-58
2024/01/20 01:28:32;;;;;;;0.60;0.60;;;;;;;-2.82;100.00;102514.13;5093491;28;20537;-58
2024/01/20 01:30:57;;;;;;;0.60;0.60;;;;;;;-2.83;100.00;102516.50;5093755;28;20111;-58
2024/01/20 01:33:23;;;;;;;0.70;0.70;;;;;;;-2.84;100.00;102514.69;5092493;28;20458;-58
2024/01/20 01:35:48;;;;;;;0.60;0.60;;;;;;;-2.83;100.00;102516.50;5093590;28;20036;-58
2024/01/20 01:38:13;;;;;;;0.60;0.60;;;;;;;-2.83;100.00;102519.03;5093344;28;20475;-58
2024/01/20 01:40:39;;;;;;;0.57;0.57;;;;;;;-2.85;100.00;102523.03;5092681;28;20032;-58
2024/01/20 01:43:04;;;;;;;0.70;0.70;;;;;;;-2.85;100.00;102528.97;5093306;28;20128;-59
2024/01/20 01:45:29;;;;;;;0.60;0.60;;;;;;;-2.84;100.00;102529.84;5093154;28;20460;-58
2024/01/20 01:47:55;;;;;;;0.65;0.65;;;;;;;-2.84;100.00;102530.75;5092806;28;20060;-58
2024/01/20 01:50:22;;;;;;;0.60;0.60;;;;;;;-2.83;100.00;102531.63;5093276;28;20031;-58
2024/01/20 01:52:48;;;;;;;0.60;0.60;;;;;;;-2.83;100.00;102537.59;5093457;28;20027;-58
2024/01/20 01:55:15;;;;;;;0.60;0.60;;;;;;;-2.83;100.00;102539.22;5092561;28;20097;-58
2024/01/20 01:57:42;;;;;;;0.70;0.70;;;;;;;-2.83;100.00;102541.72;5093584;28;20039;-58
2024/01/20 02:00:08;;;;;;;0.63;0.63;;;;;;;-2.79;100.00;102542.97;5093321;28;20070;-59
2024/01/20 02:02:33;;;;;;;0.70;0.70;;;;;;;-2.79;100.00;102556.47;5092631;28;20419;-58
2024/01/20 02:04:58;;;;;;;0.60;0.60;;;;;;;-2.77;100.00;102555.03;5093396;28;20380;-58
2024/01/20 02:07:24;;;;;;;0.70;0.70;;;;;;;-2.77;100.00;102552.50;5092265;28;20490;-58
2024/01/20 02:09:49;;;;;;;0.60;0.60;;;;;;;-2.78;100.00;102559.91;5092742;28;20480;-58
2024/01/20 02:12:15;;;;;;;0.70;0.70;;;;;;;-2.79;100.00;102556.47;5092629;28;20024;-58
2024/01/20 02:14:43;;;;;;;0.70;0.70;;;;;;;-2.81;100.00;102556.31;5092411;28;20464;-59
2024/01/20 02:17:08;;;;;;;0.70;0.70;;;;;;;-2.82;100.00;102564.59;5092994;28;20024;-58
2024/01/20 02:19:40;;;;;;;0.70;0.70;;;;;;;-2.80;100.00;102567.31;5092566;28;20028;-58
2024/01/20 02:22:13;;;;;;;0.60;0.60;;;;;;;-2.79;100.00;102560.66;5092093;28;20487;-58
2024/01/20 02:24:39;;;;;;;0.50;0.50;;;;;;;-2.79;100.00;102568.22;5092898;28;20036;-59
2024/01/20 02:27:06;;;;;;;0.60;0.60;;;;;;;-2.82;100.00;102563.72;5092992;28;20023;-58
2024/01/20 02:29:31;;;;;;;0.60;0.60;;;;;;;-2.83;100.00;102559.41;5091763;28;20099;-58
2024/01/20 02:31:57;;;;;;;0.60;0.60;;;;;;;-2.85;100.00;102568.44;5093199;28;20111;-58
2024/01/20 02:34:22;;;;;;;0.60;0.60;;;;;;;-2.89;100.00;102561.22;5092575;28;20031;-58
2024/01/20 02:36:47;;;;;;;0.70;0.70;;;;;;;-2.88;100.00;102578.16;5091829;28;20103;-58
2024/01/20 02:39:13;;;;;;;0.70;0.70;;;;;;;-2.88;100.00;102563.03;5092188;28;20032;-58
2024/01/20 02:41:38;;;;;;;0.70;0.70;;;;;;;-2.83;100.00;102566.97;5092501;28;20476;-58
2024/01/20 02:44:04;;;;;;;0.60;0.60;;;;;;;-2.89;100.00;102556.19;5091769;28;20048;-58
2024/01/20 02:46:30;;;;;;;0.50;0.50;;;;;;;-2.89;100.00;102556.19;5092308;28;20039;-58
2024/01/20 02:48:55;;;;;;;0.60;0.60;;;;;;;-2.91;100.00;102550.09;5092555;28;20035;-58
2024/01/20 02:51:20;;;;;;;0.60;0.60;;;;;;;-2.92;100.00;102556.75;5091485;28;20028;-58
2024/01/20 02:53:46;;;;;;;0.60;0.60;;;;;;;-2.92;100.00;102558.38;5092162;28;20325;-58
2024/01/20 02:56:12;;;;;;;0.60;0.60;;;;;;;-2.93;100.00;102557.50;5092193;28;20099;-58
2024/01/20 02:58:37;;;;;;;0.70;0.70;;;;;;;-2.92;100.00;102551.69;5091923;28;20020;-58
2024/01/20 03:01:06;;;;;;;0.60;0.60;;;;;;;-2.92;100.00;102556.75;5092332;28;20360;-58
2024/01/20 03:03:31;;;;;;;0.60;0.60;;;;;;;-2.91;100.00;102560.19;5091257;28;20032;-59
2024/01/20 03:05:56;;;;;;;0.70;0.70;;;;;;;-2.92;100.00;102566.84;5092198;28;20069;-58
2024/01/20 03:08:21;;;;;;;0.60;0.60;;;;;;;-2.93;100.00;102574.25;5091903;28;20384;-58
2024/01/20 03:10:47;;;;;;;0.50;0.50;;;;;;;-2.87;100.00;102574.94;5091658;28;20028;-58
2024/01/20 03:13:12;;;;;;;0.63;0.63;;;;;;;-2.90;100.00;102569.56;5091732;28;20024;-58
2024/01/20 03:15:37;;;;;;;0.60;0.60;;;;;;;-2.89;100.00;102579.81;5092446;28;20028;-58
2024/01/20 03:18:03;;;;;;;0.60;0.60;;;;;;;-2.84;100.00;102580.31;5091707;28;20103;-58
2024/01/20 03:20:28;;;;;;;0.60;0.60;;;;;;;-2.85;100.00;102588.63;5091865;28;20407;-59
2024/01/20 03:22:54;;;;;;;0.60;0.60;;;;;;;-2.85;100.00;102594.56;5092082;28;20020;-58
2024/01/20 03:25:19;;;;;;;0.70;0.70;;;;;;;-2.85;100.00;102589.50;5091317;28;20024;-58
2024/01/20 03:27:44;;;;;;;0.60;0.60;;;;;;;-2.85;100.00;102586.09;5092285;28;20023;-58
2024/01/20 03:30:10;;;;;;;0.60;0.60;;;;;;;-2.82;100.00;102588.97;5091668;28;20028;-58
2024/01/20 03:32:35;;;;;;;0.60;0.60;;;;;;;-2.82;100.00;102583.91;5091255;28;20031;-58
2024/01/20 03:35:01;;;;;;;0.60;0.60;;;;;;;-2.77;100.00;102585.31;5092307;28;20020;-58
2024/01/20 03:37:26;;;;;;;0.60;0.60;;;;;;;-2.79;100.00;102583.34;5091565;28;20047;-58
2024/01/20 03:39:52;;;;;;;0.70;0.70;;;;;;;-2.80;100.00;102585.00;5091381;28;20036;-58
2024/01/20 03:42:18;;;;;;;0.70;0.70;;;;;;;-2.80;100.00;102579.94;5091311;28;20522;-58
2024/01/20 03:44:43;;;;;;;0.60;0.60;;;;;;;-2.82;100.00;102589.84;5092065;28;20040;-59
2024/01/20 03:47:09;;;;;;;0.60;0.60;;;;;;;-2.79;100.00;102591.81;5091244;28;20040;-58
2024/01/20 03:49:34;;;;;;;0.70;0.70;;;;;;;-2.77;100.00;102589.47;5092243;28;20043;-58
2024/01/20 03:51:59;;;;;;;0.70;0.70;;;;;;;-2.76;100.00;102594.69;5095548;28;20068;-58
2024/01/20 03:54:25;;;;;;;0.60;0.60;;;;;;;-2.74;100.00;102590.69;5094782;28;20024;-58
2024/01/20 03:56:50;;;;;;;0.70;0.70;;;;;;;-2.72;100.00;102591.78;5095742;28;20026;-58
2024/01/20 03:59:15;;;;;;;0.60;0.60;;;;;;;-2.73;100.00;102589.97;5095395;28;20097;-58
2024/01/20 04:01:40;;;;;;;0.65;0.65;;;;;;;-2.72;100.00;102586.72;5094781;28;20032;-58
2024/01/20 04:04:06;;;;;;;0.70;0.70;;;;;;;-2.72;100.00;102581.69;5095551;28;20426;-58
2024/01/20 04:06:32;;;;;;;0.63;0.63;;;;;;;-2.73;100.00;102584.94;5094944;28;20448;-58
2024/01/20 04:08:57;;;;;;;0.60;0.60;;;;;;;-2.74;100.00;102578.06;5094495;28;20478;-58
2024/01/20 04:11:22;;;;;;;0.70;0.70;;;;;;;-2.73;100.00;102579.00;5095293;28;20138;-58
2024/01/20 04:13:47;;;;;;;0.60;0.60;;;;;;;-2.75;100.00;102593.06;5094922;28;20031;-58
2024/01/20 04:16:13;;;;;;;0.60;0.60;;;;;;;-2.74;100.00;102592.34;5094904;28;20464;-58
2024/01/20 04:18:38;;;;;;;0.60;0.60;;;;;;;-2.74;100.00;102598.25;5095238;28;20035;-59
2024/01/20 04:21:04;;;;;;;0.60;0.60;;;;;;;-2.73;100.00;102595.03;5094019;28;20024;-58
2024/01/20 04:23:29;;;;;;;0.60;0.60;;;;;;;-2.73;100.00;102599.19;5094614;28;20860;-58
2024/01/20 04:25:54;;;;;;;0.57;0.57;;;;;;;-2.72;100.00;102604.41;5095065;28;20489;-58
2024/01/20 04:28:19;;;;;;;0.60;0.60;;;;;;;-2.72;100.00;102599.34;5093745;28;20035;-58
2024/01/20 04:30:45;;;;;;;0.60;0.60;;;;;;;-2.65;100.00;102603.44;5094776;28;20463;-59
2024/01/20 04:33:10;;;;;;;0.50;0.50;;;;;;;-2.72;100.00;102611.97;5094664;28;20103;-58
2024/01/20 04:35:35;;;;;;;0.60;0.60;;;;;;;-2.72;100.00;102611.09;5094022;28;20111;-59
2024/01/20 04:38:01;;;;;;;0.60;0.60;;;;;;;-2.73;100.00;102610.16;5094749;28;20095;-58
2024/01/20 04:40:26;;;;;;;0.60;0.60;;;;;;;-2.74;100.00;102613.41;5094527;28;20021;-59
2024/01/20 04:42:51;;;;;;;0.60;0.60;;;;;;;-2.76;100.00;102614.88;5093800;28;20048;-58
2024/01/20 04:45:17;;;;;;;0.70;0.70;;;;;;;-2.76;100.00;102619.94;5094361;28;20131;-58
2024/01/20 04:47:43;;;;;;;0.60;0.60;;;;;;;-2.74;100.00;102626.03;5094498;28;20099;-58
2024/01/20 04:50:08;;;;;;;0.60;0.60;;;;;;;-2.74;100.00;102620.97;5093655;28;20028;-58
2024/01/20 04:52:33;;;;;;;0.70;0.70;;;;;;;-2.74;100.00;102620.97;5093842;28;20059;-58
2024/01/20 04:54:59;;;;;;;0.60;0.60;;;;;;;-2.74;100.00;102620.09;5094522;28;20012;-58
2024/01/20 04:57:24;;;;;;;0.60;0.60;;;;;;;-2.72;100.00;102621.19;5093228;28;20036;-58
2024/01/20 04:59:49;;;;;;;0.60;0.60;;;;;;;-2.73;100.00;102615.22;5094128;28;20048;-58
2024/01/20 05:02:15;;;;;;;0.60;0.60;;;;;;;-2.70;100.00;102619.69;5093728;28;20024;-58
2024/01/20 05:04:40;;;;;;;0.60;0.60;;;;;;;-2.71;100.00;102618.81;5093436;28;20020;-58
2024/01/20 05:07:05;;;;;;;0.50;0.50;;;;;;;-2.72;100.00;102622.06;5094026;28;20031;-58
2024/01/20 05:09:31;;;;;;;0.68;0.68;;;;;;;-2.72;100.00;102617.00;5093576;28;20016;-58
2024/01/20 05:11:56;;;;;;;0.60;0.60;;;;;;;-2.66;100.00;102625.28;5093409;28;20016;-58
2024/01/20 05:14:21;;;;;;;0.60;0.60;;;;;;;-2.73;100.00;102625.31;5093696;28;20430;-58
2024/01/20 05:16:46;;;;;;;0.60;0.60;;;;;;;-2.74;100.00;102626.03;5094324;28;20028;-58
2024/01/20 05:19:12;;;;;;;0.65;0.65;;;;;;;-2.76;100.00;102630.03;5092732;28;20024;-58
2024/01/20 05:21:38;;;;;;;0.60;0.60;;;;;;;-2.76;100.00;102635.06;5093719;28;20386;-58
2024/01/20 05:24:06;;;;;;;0.60;0.60;;;;;;;-2.73;100.00;102640.44;5093686;28;20024;-59
2024/01/20 05:26:32;;;;;;;0.50;0.50;;;;;;;-2.74;100.00;102638.66;5093132;28;20035;-58
2024/01/20 05:28:57;;;;;;;0.70;0.70;;;;;;;-2.77;100.00;102638.31;5093573;28;20020;-58
2024/01/20 05:31:31;;;;;;;0.60;0.60;;;;;;;-2.72;100.00;102639.72;5092520;28;20058;-58
2024/01/20 05:33:56;;;;;;;0.50;0.50;;;;;;;-2.75;100.00;102641.00;5093420;28;20117;-58
2024/01/20 05:36:22;;;;;;;0.60;0.60;;;;;;;-2.76;100.00;102650.22;5093082;28;20487;-58
2024/01/20 05:38:47;;;;;;;0.70;0.70;;;;;;;-2.76;100.00;102645.16;5092435;28;20031;-59
2024/01/20 05:41:12;;;;;;;0.70;0.70;;;;;;;-2.77;100.00;102645.88;5093344;28;20039;-58
2024/01/20 05:43:37;;;;;;;0.50;0.50;;;;;;;-2.77;100.00;102642.47;5093297;28;20044;-59
2024/01/20 05:46:06;;;;;;;0.60;0.60;;;;;;;-2.74;100.00;102650.38;5092432;28;20116;-58
2024/01/20 05:48:32;;;;;;;0.60;0.60;;;;;;;-2.74;100.00;102652.91;5093093;28;20027;-58
2024/01/20 05:50:58;;;;;;;0.70;0.70;;;;;;;-2.74;100.00;102652.91;5093392;28;20032;-58
2024/01/20 05:53:23;;;;;;;0.70;0.70;;;;;;;-2.73;100.00;102647.13;5092458;28;20020;-58
2024/01/20 05:55:48;;;;;;;0.70;0.70;;;;;;;-2.77;100.00;102653.47;5093311;28;20028;-58
2024/01/20 05:58:14;;;;;;;0.70;0.70;;;;;;;-2.77;100.00;102657.63;5092924;28;20023;-58
2024/01/20 06:00:40;;;;;;;0.70;0.70;;;;;;;-2.79;100.00;102659.94;5092344;28;20024;-58
2024/01/20 06:03:06;;;;;;;0.50;0.50;;;;;;;-2.78;100.00;102659.22;5092822;28;20333;-58
2024/01/20 06:05:31;;;;;;;0.60;0.60;;;;;;;-2.82;100.00;102663.03;5092661;28;20505;-58
2024/01/20 06:07:56;;;;;;;0.70;0.70;;;;;;;-2.79;100.00;102659.94;5092279;28;20043;-58
2024/01/20 06:10:22;;;;;;;0.70;0.70;;;;;;;-2.78;100.00;102661.75;5092541;28;20510;-58
2024/01/20 06:12:48;;;;;;;0.70;0.70;;;;;;;-2.78;100.00;102664.28;5092176;28;20119;-58
2024/01/20 06:15:13;;;;;;;0.60;0.60;;;;;;;-2.78;100.00;102665.91;5091991;28;20023;-58
2024/01/20 06:17:38;;;;;;;0.60;0.60;;;;;;;-2.79;100.00;102664.09;5092962;28;20045;-59
2024/01/20 06:20:05;;;;;;;0.60;0.60;;;;;;;-2.83;100.00;102675.47;5092604;28;20067;-58
2024/01/20 06:22:31;;;;;;;0.60;0.60;;;;;;;-2.77;100.00;102681.22;5091326;28;20043;-58
2024/01/20 06:24:56;;;;;;;0.60;0.60;;;;;;;-2.86;100.00;102675.13;5093051;28;20032;-58
2024/01/20 06:27:21;;;;;;;0.60;0.60;;;;;;;-2.88;100.00;102674.97;5092496;28;20054;-58
2024/01/20 06:29:47;;;;;;;0.68;0.68;;;;;;;-2.88;100.00;102676.56;5091808;28;20484;-58
2024/01/20 06:32:12;;;;;;;0.60;0.60;;;;;;;-2.89;100.00;102677.28;5092338;28;20031;-58
2024/01/20 06:34:37;;;;;;;0.60;0.60;;;;;;;-2.89;100.00;102677.28;5091518;28;20035;-59
2024/01/20 06:37:03;;;;;;;0.50;0.50;;;;;;;-2.90;100.00;102671.38;5092711;28;20039;-58
2024/01/20 06:39:28;;;;;;;0.57;0.57;;;;;;;-2.86;100.00;102676.03;5092209;28;20035;-58
2024/01/20 06:41:54;;;;;;;0.50;0.50;;;;;;;-2.79;100.00;102682.66;5092001;28;20051;-58
2024/01/20 06:44:21;;;;;;;0.60;0.60;;;;;;;-2.85;100.00;102680.34;5092162;28;20051;-58
2024/01/20 06:46:47;;;;;;;;;;;;;;;-2.76;100.00;102689.69;5092727;28;20023;-58
2024/01/20 06:49:12;;;;;;;0.70;0.70;;;;;;;-2.75;100.00;102697.44;5091089;28;19920;-58
2024/01/20 06:51:37;;;;;;;0.70;0.70;;;;;;;-2.81;100.00;102696.75;5092297;28;20043;-58
2024/01/20 06:54:03;;;;;;;0.70;0.70;;;;;;;-2.83;100.00;102700.69;5092843;28;20056;-58
2024/01/20 06:56:28;;;;;;;0.70;0.70;;;;;;;-2.83;100.00;102706.66;5091263;28;20024;-58
2024/01/20 06:58:55;;;;;;;0.50;0.50;;;;;;;-2.84;100.00;102701.41;5092707;28;20031;-59
2024/01/20 07:01:20;;;;;;;0.60;0.60;;;;;;;-2.86;100.00;102703.78;5092371;28;20484;-58
2024/01/20 07:03:46;;;;;;;0.60;0.60;;;;;;;-2.84;100.00;102702.34;5091907;28;20051;-59
2024/01/20 07:06:12;;;;;;;0.50;0.50;;;;;;;-2.77;100.00;102703.94;5092254;28;20028;-59
2024/01/20 07:08:38;;;;;;;0.50;0.50;;;;;;;-2.84;100.00;102697.28;5092738;28;20020;-58
2024/01/20 07:11:08;;;;;;;0.70;0.70;;;;;;;-2.84;100.00;102693.84;5091795;28;20028;-58
2024/01/20 07:13:33;;;;;;;0.60;0.60;;;;;;;-2.85;100.00;102705.59;5092238;28;20099;-58
2024/01/20 07:15:58;;;;;;;0.60;0.60;;;;;;;-2.84;100.00;102704.88;5092299;28;20067;-58
2024/01/20 07:18:24;;;;;;;0.60;0.60;;;;;;;-2.83;100.00;102699.09;5091359;28;20023;-58
2024/01/20 07:20:50;;;;;;;0.70;0.70;;;;;;;-2.84;100.00;102706.47;5092584;28;20032;-58
2024/01/20 07:23:16;;;;;;;0.70;0.70;;;;;;;-2.84;100.00;102701.41;5092144;28;20454;-59
2024/01/20 07:25:42;;;;;;;0.60;0.60;;;;;;;-2.86;100.00;102697.84;5094100;28;20073;-59
2024/01/20 07:28:07;;;;;;;0.60;0.60;;;;;;;-2.89;100.00;102700.91;5096521;28;20468;-58
2024/01/20 07:30:33;;;;;;;0.68;0.68;;;;;;;-2.90;100.00;102701.63;5095951;28;20376;-58
2024/01/20 07:32:58;;;;;;;0.65;0.65;;;;;;;-2.89;100.00;102692.44;5095247;28;20024;-58
2024/01/20 07:35:24;;;;;;;0.70;0.70;;;;;;;-2.89;100.00;102702.53;5095399;28;20024;-58
2024/01/20 07:37:49;;;;;;;0.60;0.60;;;;;;;-2.79;100.00;102705.38;5095479;28;20055;-58
2024/01/20 07:40:15;;;;;;;0.65;0.65;;;;;;;-2.86;100.00;102702.91;5095832;28;20024;-58
2024/01/20 07:42:40;;;;;;;0.60;0.60;;;;;;;-2.77;100.00;102715.66;5095814;28;20123;-59
2024/01/20 07:45:06;;;;;;;0.60;0.60;;;;;;;-2.84;100.00;102714.03;5095149;28;20027;-58
2024/01/20 07:47:31;;;;;;;0.70;0.70;;;;;;;-2.86;100.00;102710.47;5095306;28;20555;-58
2024/01/20 07:49:57;;;;;;;0.70;0.70;;;;;;;-2.85;100.00;102717.31;5095833;28;20107;-58
2024/01/20 07:52:22;;;;;;;0.60;0.60;;;;;;;-2.82;100.00;102717.66;5094705;28;20499;-58
2024/01/20 07:54:47;;;;;;;0.70;0.70;;;;;;;-2.83;100.00;102708.28;5095997;28;20027;-58
2024/01/20 07:57:13;;;;;;;0.63;0.63;;;;;;;-2.85;100.00;102715.69;5095505;28;20111;-58
2024/01/20 07:59:38;;;;;;;0.60;0.60;;;;;;;-2.84;100.00;102726.66;5094864;28;20020;-58
2024/01/20 08:02:03;;;;;;;0.70;0.70;;;;;;;-2.86;100.00;102731.53;5095624;28;20024;-58
2024/01/20 08:04:28;;;;;;;0.70;0.70;;;;;;;-2.86;100.00;102733.16;5095670;28;20353;-58
2024/01/20 08:06:54;;;;;;;0.70;0.70;;;;;;;-2.85;100.00;102722.34;5094772;28;20077;-59
2024/01/20 08:09:19;;;;;;;0.60;0.60;;;;;;;-2.84;100.00;102724.13;5095121;28;20016;-58
2024/01/20 08:11:44;;;;;;;0.60;0.60;;;;;;;-2.83;100.00;102726.84;5095560;28;20103;-58
2024/01/20 08:14:10;;;;;;;0.60;0.60;;;;;;;-2.83;100.00;102724.34;5094524;28;20081;-58
2024/01/20 08:16:35;;;;;;;0.57;0.57;;;;;;;-2.79;100.00;102733.13;5095413;28;20097;-58
2024/01/20 08:19:01;;;;;;;0.60;0.60;;;;;;;-2.78;100.00;102731.53;5095343;28;20025;-58
2024/01/20 08:21:26;;;;;;;0.70;0.70;;;;;;;-2.79;100.00;102735.66;5094394;28;20027;-58
2024/01/20 08:23:51;;;;;;;0.60;0.60;;;;;;;-2.75;100.00;102736.91;5095424;28;20077;-58
2024/01/20 08:26:17;;;;;;;0.70;0.70;;;;;;;-2.74;100.00;102747.16;5095019;28;20539;-58
2024/01/20 08:28:42;;;;;;;0.60;0.60;;;;;;;-2.74;100.00;102742.13;5094243;28;20020;-58
2024/01/20 08:31:07;;;;;;;0.68;0.68;;;;;;;-2.75;100.00;102742.88;5095007;28;20447;-58
2024/01/20 08:33:33;;;;;;;0.70;0.70;;;;;;;-2.71;100.00;102750.06;5094990;28;20028;-57
2024/01/20 08:35:58;;;;;;;0.70;0.70;;;;;;;-2.63;100.00;102747.50;5093710;28;20031;-58
2024/01/20 08:38:24;;;;;;;0.70;0.70;;;;;;;-2.71;100.00;102750.06;5094730;28;20020;-58
2024/01/20 08:40:49;;;;;;;0.60;0.60;;;;;;;-2.67;100.00;102753.84;5094978;28;20054;-58
2024/01/20 08:43:15;;;;;;;0.70;0.70;;;;;;;-2.64;100.00;102751.66;5093611;28;20128;-58
2024/01/20 08:45:41;;;;;;;0.68;0.68;;;;;;;-2.66;100.00;102761.56;5094679;28;20055;-59
2024/01/20 08:48:07;;;;;;;0.60;0.60;;;;;;;-2.63;100.00;102758.50;5094183;28;20059;-58
2024/01/20 08:50:32;;;;;;;0.70;0.70;;;;;;;-2.58;100.00;102762.44;5094184;28;20036;-58
2024/01/20 08:52:57;;;;;;;0.50;0.50;;;;;;;-2.57;100.00;102764.25;5094735;28;20027;-58
2024/01/20 08:55:22;;;;;;;0.60;0.60;;;;;;;-2.55;100.00;102760.25;5093520;28;20028;-58
2024/01/20 08:57:48;;;;;;;0.60;0.60;;;;;;;-2.53;100.00;102756.28;5094577;28;20077;-57
2024/01/20 09:00:13;;;;;;;0.60;0.60;;;;;;;-2.44;100.00;102761.50;5093969;28;20024;-58
2024/01/20 09:02:39;;;;;;;0.60;0.60;;;;;;;-2.38;100.00;102764.69;5093721;28;20028;-57
2024/01/20 09:05:05;;;;;;;0.60;0.60;;;;;;;-2.38;100.00;102762.16;5094089;28;20020;-58
2024/01/20 09:07:30;;;;;;;0.60;0.60;;;;;;;-2.39;100.00;102759.47;5094143;28;20476;-59
2024/01/20 09:09:56;;;;;;;0.50;0.50;;;;;;;-2.40;100.00;102758.56;5093377;28;20479;-59
2024/01/20 09:12:21;;;;;;;0.40;0.40;;;;;;;-2.42;100.00;102769.22;5093935;28;20047;-58
2024/01/20 09:14:47;;;;;;;0.60;0.60;;;;;;;-2.42;100.00;102770.13;5093941;28;20476;-58
2024/01/20 09:17:13;;;;;;;0.60;0.60;;;;;;;-2.44;100.00;102775.72;5092917;28;20028;-58
2024/01/20 09:19:38;;;;;;;0.65;0.65;;;;;;;-2.47;100.00;102766.19;5094003;28;20024;-58
2024/01/20 09:22:03;;;;;;;0.60;0.60;;;;;;;-2.45;100.00;102774.84;5094272;28;20031;-58
2024/01/20 09:24:29;;;;;;;0.60;0.60;;;;;;;-2.46;100.00;102783.13;5092890;28;20036;-58
2024/01/20 09:26:54;;;;;;;0.60;0.60;;;;;;;-2.44;100.00;102780.78;5094021;28;20012;-59
2024/01/20 09:29:19;;;;;;;0.50;0.50;;;;;;;-2.42;100.00;102777.69;5093428;28;20365;-59
2024/01/20 09:31:45;;;;;;;0.60;0.60;;;;;;;-2.38;100.00;102777.31;5092878;28;20039;-59
2024/01/20 09:34:11;;;;;;;0.50;0.50;;;;;;;-2.35;100.00;102779.28;5093274;28;20031;-59
2024/01/20 09:36:36;;;;;;;0.70;0.70;;;;;;;-2.33;100.00;102781.25;5093957;28;20102;-59
2024/01/20 09:39:02;;;;;;;0.70;0.70;;;;;;;-2.35;100.00;102776.75;5093154;28;20165;-59
2024/01/20 09:41:29;;;;;;;0.55;0.55;;;;;;;-2.39;100.00;102777.13;5093398;28;20541;-58
2024/01/20 09:43:55;;;;;;;0.57;0.57;;;;;;;-2.39;100.00;102777.13;5093588;28;20048;-58
2024/01/20 09:46:20;;;;;;;0.60;0.60;;;;;;;-2.35;100.00;102782.72;5092312;28;20024;-60
2024/01/20 09:48:46;;;;;;;0.70;0.70;;;;;;;-2.34;100.00;102782.00;5093060;28;20027;-61
2024/01/20 09:51:11;;;;;;;0.60;0.60;;;;;;;-2.19;100.00;102786.97;5093321;28;20360;-61
2024/01/20 09:53:38;;;;;;;0.60;0.60;;;;;;;-2.19;100.00;102792.03;5092812;28;20106;-60
2024/01/20 09:56:04;;;;;;;0.50;0.50;;;;;;;-2.19;100.00;102794.56;5093342;28;20470;-61
2024/01/20 09:58:33;;;;;;;0.60;0.60;;;;;;;-2.15;100.00;102804.28;5092228;28;20108;-60
2024/01/20 10:00:59;;;;;;;0.60;0.60;;;;;;;-2.15;100.00;102799.22;5093656;28;20024;-60
2024/01/20 10:03:28;;;;;;;0.55;0.55;;;;;;;-2.07;100.00;102800.06;5093093;28;20028;-61
2024/01/20 10:05:53;;;;;;;0.60;0.60;;;;;;;-2.06;100.00;102805.28;5092590;28;20159;-61
2024/01/20 10:08:19;;;;;;;0.60;0.60;;;;;;;-2.03;100.00;102802.22;5092851;28;20094;-60
2024/01/20 10:10:44;;;;;;;0.60;0.60;;;;;;;-2.01;100.00;102801.66;5093311;28;20079;-60
2024/01/20 10:13:09;;;;;;;0.60;0.60;;;;;;;-1.99;100.00;102802.75;5092180;28;20030;-61
2024/01/20 10:15:35;;;;;;;0.50;0.50;;;;;;;-2.02;100.00;102802.38;5093367;28;20032;-61
2024/01/20 10:18:08;;;;;;;0.60;0.60;;;;;;;-1.99;100.00;102806.88;5093276;28;20024;-61
2024/01/20 10:20:35;;;;;;;0.60;0.60;;;;;;;-1.97;100.00;102802.91;5092196;28;20024;-61
2024/01/20 10:23:02;;;;;;;0.60;0.60;;;;;;;-2.00;100.00;102808.50;5093134;28;20073;-61
2024/01/20 10:25:28;;;;;;;0.60;0.60;;;;;;;-2.02;100.00;102797.31;5092738;28;20032;-61
2024/01/20 10:27:53;;;;;;;0.60;0.60;;;;;;;-1.92;100.00;102816.06;5092117;28;20026;-61
2024/01/20 10:30:22;;;;;;;0.60;0.60;;;;;;;-1.90;100.00;102814.59;5092870;28;20025;-61
2024/01/20 10:32:51;;;;;;;0.60;0.60;;;;;;;-1.81;100.00;102805.50;5093082;28;20023;-61
2024/01/20 10:35:17;;;;;;;0.60;0.60;;;;;;;-1.63;100.00;102801.56;5091400;28;20050;-61
2024/01/20 10:37:44;;;;;;;0.55;0.55;;;;;;;-1.61;100.00;102806.78;5092541;28;20456;-61
2024/01/20 10:40:12;;;;;;;0.60;0.60;;;;;;;-1.63;100.00;102800.69;5092000;28;20020;-61
2024/01/20 10:42:41;;;;;;;;;;;;;;;-1.46;100.00;102811.00;5092327;28;20109;-61
2024/01/20 10:45:15;;;;;;;0.50;0.50;;;;;;;-1.58;100.00;102809.69;5092453;28;20291;-61
2024/01/20 10:47:44;;;;;;;0.50;0.50;;;;;;;-1.61;100.00;102799.22;5091843;28;20048;-61
2024/01/20 10:50:10;;;;;;;0.60;0.60;;;;;;;-1.65;100.00;102800.53;5092478;28;20086;-61
2024/01/20 10:52:36;;;;;;;0.50;0.50;;;;;;;-1.73;100.00;102797.16;5092498;28;20024;-61
2024/01/20 10:55:03;;;;;;;0.60;0.60;;;;;;;-1.73;100.00;102793.72;5091687;28;20031;-60
2024/01/20 10:57:29;;;;;;;0.50;0.50;;;;;;;-1.62;100.00;102802.50;5092104;28;20024;-61
2024/01/20 10:59:57;;;;;;;0.60;0.60;;;;;;;-1.70;100.00;102804.19;5095686;28;20028;-61
2024/01/20 11:02:24;;;;;;;0.52;0.52;;;;;;;-1.65;100.00;102808.13;5095796;28;20421;-60
2024/01/20 11:04:49;;;;;;;0.60;0.60;;;;;;;-1.55;100.00;102810.00;5096412;28;20115;-61
2024/01/20 11:07:26;;;;;;;0.50;0.50;;;;;;;-1.35;100.00;102805.50;5095505;28;20115;-60
2024/01/20 11:09:58;;;;;;;0.60;0.60;;;;;;;-1.26;100.00;102804.72;5095931;28;20031;-61